sensor_id;sensor_type;location;lat;lon;timestamp;P1;durP1;ratioP1;P2;durP2;ratioP2
10333;SDS011;5212;47.892;16.406;2023-08-01T00:02:25;3.50;;;3.20;;
10333;SDS011;5212;47.892;16.406;2023-08-01T00:04:51;3.63;;;3.00;;
10333;SDS011;5212;47.892;16.406;2023-08-01T00:07:17;3.90;;;2.87;;
10333;SDS011;5212;47.892;16.406;2023-08-01T00:09:43;3.33;;;3.00;;
10333;SDS011;5212;47.892;16.406;2023-08-01T00:12:09;3.43;;;3.13;;
10333;SDS011;5212;47.892;16.406;2023-08-01T00:14:36;3.40;;;3.10;;
10333;SDS011;5212;47.892;16.406;2023-08-01T00:17:02;3.50;;;3.17;;
10333;SDS011;5212;47.892;16.406;2023-08-01T00:19:28;3.33;;;3.00;;
10333;SDS011;5212;47.892;16.406;2023-08-01T00:21:54;3.30;;;2.97;;
10333;SDS011;5212;47.892;16.406;2023-08-01T00:24:20;3.50;;;3.10;;
10333;SDS011;5212;47.892;16.406;2023-08-01T00:26:46;3.47;;;3.17;;
10333;SDS011;5212;47.892;16.406;2023-08-01T00:29:12;3.43;;;3.00;;
10333;SDS011;5212;47.892;16.406;2023-08-01T00:31:39;3.57;;;3.23;;
10333;SDS011;5212;47.892;16.406;2023-08-01T00:34:05;3.40;;;3.10;;
10333;SDS011;5212;47.892;16.406;2023-08-01T00:36:31;3.37;;;3.07;;
10333;SDS011;5212;47.892;16.406;2023-08-01T00:38:57;3.57;;;3.23;;
10333;SDS011;5212;47.892;16.406;2023-08-01T00:41:23;3.13;;;2.80;;
10333;SDS011;5212;47.892;16.406;2023-08-01T00:43:49;3.47;;;3.00;;
10333;SDS011;5212;47.892;16.406;2023-08-01T00:46:15;3.47;;;3.17;;
10333;SDS011;5212;47.892;16.406;2023-08-01T00:48:42;4.47;;;3.10;;
10333;SDS011;5212;47.892;16.406;2023-08-01T00:51:08;3.33;;;3.03;;
10333;SDS011;5212;47.892;16.406;2023-08-01T00:53:37;3.33;;;3.03;;
10333;SDS011;5212;47.892;16.406;2023-08-01T00:56:03;3.37;;;3.07;;
10333;SDS011;5212;47.892;16.406;2023-08-01T00:58:29;3.70;;;3.30;;
10333;SDS011;5212;47.892;16.406;2023-08-01T01:00:55;3.23;;;2.93;;
10333;SDS011;5212;47.892;16.406;2023-08-01T01:03:22;3.60;;;3.30;;
10333;SDS011;5212;47.892;16.406;2023-08-01T01:05:52;3.50;;;3.20;;
10333;SDS011;5212;47.892;16.406;2023-08-01T01:08:19;3.63;;;3.33;;
10333;SDS011;5212;47.892;16.406;2023-08-01T01:10:45;3.63;;;3.30;;
10333;SDS011;5212;47.892;16.406;2023-08-01T01:13:11;3.80;;;3.50;;
10333;SDS011;5212;47.892;16.406;2023-08-01T01:15:38;4.23;;;3.23;;
10333;SDS011;5212;47.892;16.406;2023-08-01T01:18:04;4.20;;;3.60;;
10333;SDS011;5212;47.892;16.406;2023-08-01T01:20:31;3.60;;;3.30;;
10333;SDS011;5212;47.892;16.406;2023-08-01T01:22:59;3.50;;;3.20;;
10333;SDS011;5212;47.892;16.406;2023-08-01T01:25:26;3.70;;;3.40;;
10333;SDS011;5212;47.892;16.406;2023-08-01T01:27:52;3.83;;;3.40;;
10333;SDS011;5212;47.892;16.406;2023-08-01T01:30:19;4.13;;;3.10;;
10333;SDS011;5212;47.892;16.406;2023-08-01T01:32:45;3.57;;;3.27;;
10333;SDS011;5212;47.892;16.406;2023-08-01T01:35:11;3.80;;;3.40;;
10333;SDS011;5212;47.892;16.406;2023-08-01T01:37:38;3.63;;;3.10;;
10333;SDS011;5212;47.892;16.406;2023-08-01T01:40:05;4.03;;;3.63;;
10333;SDS011;5212;47.892;16.406;2023-08-01T01:42:32;4.10;;;3.70;;
10333;SDS011;5212;47.892;16.406;2023-08-01T01:44:58;3.90;;;3.60;;
10333;SDS011;5212;47.892;16.406;2023-08-01T01:47:23;3.57;;;3.27;;
10333;SDS011;5212;47.892;16.406;2023-08-01T01:49:49;3.90;;;3.57;;
10333;SDS011;5212;47.892;16.406;2023-08-01T01:52:15;4.07;;;3.67;;
10333;SDS011;5212;47.892;16.406;2023-08-01T01:54:42;3.70;;;3.40;;
10333;SDS011;5212;47.892;16.406;2023-08-01T01:57:08;4.43;;;4.03;;
10333;SDS011;5212;47.892;16.406;2023-08-01T01:59:34;4.10;;;3.70;;
10333;SDS011;5212;47.892;16.406;2023-08-01T02:02:00;4.40;;;4.00;;
10333;SDS011;5212;47.892;16.406;2023-08-01T02:04:29;4.33;;;3.93;;
10333;SDS011;5212;47.892;16.406;2023-08-01T02:06:55;4.33;;;3.87;;
10333;SDS011;5212;47.892;16.406;2023-08-01T02:09:21;4.50;;;4.10;;
10333;SDS011;5212;47.892;16.406;2023-08-01T02:11:47;5.17;;;4.07;;
10333;SDS011;5212;47.892;16.406;2023-08-01T02:14:14;4.43;;;4.03;;
10333;SDS011;5212;47.892;16.406;2023-08-01T02:16:41;3.83;;;3.53;;
10333;SDS011;5212;47.892;16.406;2023-08-01T02:19:08;4.37;;;3.97;;
10333;SDS011;5212;47.892;16.406;2023-08-01T02:21:34;4.23;;;3.83;;
10333;SDS011;5212;47.892;16.406;2023-08-01T02:24:00;4.07;;;3.67;;
10333;SDS011;5212;47.892;16.406;2023-08-01T02:26:26;4.93;;;3.70;;
10333;SDS011;5212;47.892;16.406;2023-08-01T02:28:52;3.67;;;3.37;;
10333;SDS011;5212;47.892;16.406;2023-08-01T02:31:18;4.17;;;3.77;;
10333;SDS011;5212;47.892;16.406;2023-08-01T02:33:44;3.67;;;3.37;;
10333;SDS011;5212;47.892;16.406;2023-08-01T02:36:10;3.80;;;3.50;;
10333;SDS011;5212;47.892;16.406;2023-08-01T02:38:36;3.53;;;3.23;;
10333;SDS011;5212;47.892;16.406;2023-08-01T02:41:02;3.77;;;3.47;;
10333;SDS011;5212;47.892;16.406;2023-08-01T02:43:28;4.00;;;3.67;;
10333;SDS011;5212;47.892;16.406;2023-08-01T02:45:55;4.60;;;4.00;;
10333;SDS011;5212;47.892;16.406;2023-08-01T02:48:21;4.20;;;3.80;;
10333;SDS011;5212;47.892;16.406;2023-08-01T02:50:47;3.90;;;3.60;;
10333;SDS011;5212;47.892;16.406;2023-08-01T02:53:13;4.20;;;3.80;;
10333;SDS011;5212;47.892;16.406;2023-08-01T02:55:39;4.13;;;3.73;;
10333;SDS011;5212;47.892;16.406;2023-08-01T02:58:05;4.03;;;3.60;;
10333;SDS011;5212;47.892;16.406;2023-08-01T03:00:31;4.57;;;3.60;;
10333;SDS011;5212;47.892;16.406;2023-08-01T03:02:58;3.87;;;3.57;;
10333;SDS011;5212;47.892;16.406;2023-08-01T03:05:24;3.87;;;3.57;;
10333;SDS011;5212;47.892;16.406;2023-08-01T03:07:50;3.93;;;3.63;;
10333;SDS011;5212;47.892;16.406;2023-08-01T03:10:16;4.40;;;4.00;;
10333;SDS011;5212;47.892;16.406;2023-08-01T03:12:42;4.30;;;3.90;;
10333;SDS011;5212;47.892;16.406;2023-08-01T03:15:09;4.43;;;3.90;;
10333;SDS011;5212;47.892;16.406;2023-08-01T03:17:35;4.47;;;3.93;;
10333;SDS011;5212;47.892;16.406;2023-08-01T03:20:02;4.50;;;4.10;;
10333;SDS011;5212;47.892;16.406;2023-08-01T03:22:28;5.33;;;4.23;;
10333;SDS011;5212;47.892;16.406;2023-08-01T03:24:54;4.03;;;3.63;;
10333;SDS011;5212;47.892;16.406;2023-08-01T03:27:20;4.00;;;3.70;;
10333;SDS011;5212;47.892;16.406;2023-08-01T03:29:46;4.30;;;4.00;;
10333;SDS011;5212;47.892;16.406;2023-08-01T03:32:12;4.47;;;4.07;;
10333;SDS011;5212;47.892;16.406;2023-08-01T03:34:38;4.10;;;3.70;;
10333;SDS011;5212;47.892;16.406;2023-08-01T03:37:07;4.40;;;4.00;;
10333;SDS011;5212;47.892;16.406;2023-08-01T03:39:33;3.97;;;3.67;;
10333;SDS011;5212;47.892;16.406;2023-08-01T03:41:59;3.93;;;3.57;;
10333;SDS011;5212;47.892;16.406;2023-08-01T03:44:25;4.10;;;3.70;;
10333;SDS011;5212;47.892;16.406;2023-08-01T03:46:51;3.50;;;3.20;;
10333;SDS011;5212;47.892;16.406;2023-08-01T03:49:17;3.70;;;3.40;;
10333;SDS011;5212;47.892;16.406;2023-08-01T03:51:43;3.80;;;3.50;;
10333;SDS011;5212;47.892;16.406;2023-08-01T03:54:10;3.87;;;3.57;;
10333;SDS011;5212;47.892;16.406;2023-08-01T03:56:36;4.30;;;3.90;;
10333;SDS011;5212;47.892;16.406;2023-08-01T03:59:04;4.00;;;3.63;;
10333;SDS011;5212;47.892;16.406;2023-08-01T04:01:30;3.67;;;3.37;;
10333;SDS011;5212;47.892;16.406;2023-08-01T04:03:56;3.73;;;3.43;;
10333;SDS011;5212;47.892;16.406;2023-08-01T04:06:22;4.80;;;4.30;;
10333;SDS011;5212;47.892;16.406;2023-08-01T04:08:48;4.73;;;4.30;;
10333;SDS011;5212;47.892;16.406;2023-08-01T04:11:15;4.37;;;3.97;;
10333;SDS011;5212;47.892;16.406;2023-08-01T04:13:41;4.47;;;4.07;;
10333;SDS011;5212;47.892;16.406;2023-08-01T04:16:07;4.23;;;3.90;;
10333;SDS011;5212;47.892;16.406;2023-08-01T04:18:33;4.10;;;3.70;;
10333;SDS011;5212;47.892;16.406;2023-08-01T04:20:59;3.90;;;3.60;;
10333;SDS011;5212;47.892;16.406;2023-08-01T04:23:25;4.23;;;3.83;;
10333;SDS011;5212;47.892;16.406;2023-08-01T04:25:51;5.10;;;3.50;;
10333;SDS011;5212;47.892;16.406;2023-08-01T04:28:19;4.30;;;3.90;;
10333;SDS011;5212;47.892;16.406;2023-08-01T04:30:48;4.13;;;3.70;;
10333;SDS011;5212;47.892;16.406;2023-08-01T04:33:14;4.80;;;4.30;;
10333;SDS011;5212;47.892;16.406;2023-08-01T04:35:40;4.60;;;4.20;;
10333;SDS011;5212;47.892;16.406;2023-08-01T04:38:07;4.87;;;4.03;;
10333;SDS011;5212;47.892;16.406;2023-08-01T04:40:34;4.63;;;4.10;;
10333;SDS011;5212;47.892;16.406;2023-08-01T04:43:00;4.50;;;4.10;;
10333;SDS011;5212;47.892;16.406;2023-08-01T04:45:27;4.40;;;4.00;;
10333;SDS011;5212;47.892;16.406;2023-08-01T04:47:53;4.80;;;4.40;;
10333;SDS011;5212;47.892;16.406;2023-08-01T04:50:19;4.50;;;4.10;;
10333;SDS011;5212;47.892;16.406;2023-08-01T04:52:45;5.00;;;4.50;;
10333;SDS011;5212;47.892;16.406;2023-08-01T04:55:11;4.83;;;4.43;;
10333;SDS011;5212;47.892;16.406;2023-08-01T04:57:37;4.53;;;4.10;;
10333;SDS011;5212;47.892;16.406;2023-08-01T05:00:03;6.07;;;4.13;;
10333;SDS011;5212;47.892;16.406;2023-08-01T05:02:31;4.40;;;4.00;;
10333;SDS011;5212;47.892;16.406;2023-08-01T05:04:57;4.83;;;4.43;;
10333;SDS011;5212;47.892;16.406;2023-08-01T05:07:23;4.43;;;4.03;;
10333;SDS011;5212;47.892;16.406;2023-08-01T05:09:49;4.50;;;3.90;;
10333;SDS011;5212;47.892;16.406;2023-08-01T05:12:15;3.83;;;3.30;;
10333;SDS011;5212;47.892;16.406;2023-08-01T05:14:41;4.07;;;3.67;;
10333;SDS011;5212;47.892;16.406;2023-08-01T05:17:08;4.13;;;3.73;;
10333;SDS011;5212;47.892;16.406;2023-08-01T05:19:34;4.63;;;4.23;;
10333;SDS011;5212;47.892;16.406;2023-08-01T05:22:00;4.47;;;4.07;;
10333;SDS011;5212;47.892;16.406;2023-08-01T05:24:26;3.83;;;3.53;;
10333;SDS011;5212;47.892;16.406;2023-08-01T05:26:52;4.30;;;3.90;;
10333;SDS011;5212;47.892;16.406;2023-08-01T05:29:19;4.20;;;3.80;;
10333;SDS011;5212;47.892;16.406;2023-08-01T05:31:45;5.53;;;3.73;;
10333;SDS011;5212;47.892;16.406;2023-08-01T05:34:11;5.10;;;3.90;;
10333;SDS011;5212;47.892;16.406;2023-08-01T05:36:37;4.00;;;3.63;;
10333;SDS011;5212;47.892;16.406;2023-08-01T05:39:03;4.30;;;3.90;;
10333;SDS011;5212;47.892;16.406;2023-08-01T05:41:29;4.13;;;3.73;;
10333;SDS011;5212;47.892;16.406;2023-08-01T05:43:55;6.63;;;5.10;;
10333;SDS011;5212;47.892;16.406;2023-08-01T05:46:23;5.43;;;4.13;;
10333;SDS011;5212;47.892;16.406;2023-08-01T05:48:49;3.90;;;3.60;;
10333;SDS011;5212;47.892;16.406;2023-08-01T05:51:15;4.37;;;3.97;;
10333;SDS011;5212;47.892;16.406;2023-08-01T05:53:42;4.03;;;3.70;;
10333;SDS011;5212;47.892;16.406;2023-08-01T05:56:08;4.27;;;3.90;;
10333;SDS011;5212;47.892;16.406;2023-08-01T05:58:34;4.03;;;3.67;;
10333;SDS011;5212;47.892;16.406;2023-08-01T06:01:00;4.17;;;3.60;;
10333;SDS011;5212;47.892;16.406;2023-08-01T06:03:26;4.17;;;3.50;;
10333;SDS011;5212;47.892;16.406;2023-08-01T06:05:52;4.27;;;3.87;;
10333;SDS011;5212;47.892;16.406;2023-08-01T06:08:18;4.03;;;3.70;;
10333;SDS011;5212;47.892;16.406;2023-08-01T06:10:45;4.20;;;3.80;;
10333;SDS011;5212;47.892;16.406;2023-08-01T06:13:11;5.23;;;4.37;;
10333;SDS011;5212;47.892;16.406;2023-08-01T06:15:37;6.40;;;4.30;;
10333;SDS011;5212;47.892;16.406;2023-08-01T06:18:03;5.03;;;3.73;;
10333;SDS011;5212;47.892;16.406;2023-08-01T06:20:29;4.63;;;3.73;;
10333;SDS011;5212;47.892;16.406;2023-08-01T06:22:55;3.50;;;3.20;;
10333;SDS011;5212;47.892;16.406;2023-08-01T06:25:21;5.17;;;3.43;;
10333;SDS011;5212;47.892;16.406;2023-08-01T06:27:48;6.70;;;3.60;;
10333;SDS011;5212;47.892;16.406;2023-08-01T06:30:14;4.03;;;3.40;;
10333;SDS011;5212;47.892;16.406;2023-08-01T06:32:40;5.10;;;3.77;;
10333;SDS011;5212;47.892;16.406;2023-08-01T06:35:06;5.33;;;3.67;;
10333;SDS011;5212;47.892;16.406;2023-08-01T06:37:33;5.33;;;3.87;;
10333;SDS011;5212;47.892;16.406;2023-08-01T06:39:59;7.83;;;3.90;;
10333;SDS011;5212;47.892;16.406;2023-08-01T06:42:25;5.30;;;3.80;;
10333;SDS011;5212;47.892;16.406;2023-08-01T06:44:51;4.97;;;3.60;;
10333;SDS011;5212;47.892;16.406;2023-08-01T06:47:17;5.97;;;3.80;;
10333;SDS011;5212;47.892;16.406;2023-08-01T06:49:43;4.10;;;3.63;;
10333;SDS011;5212;47.892;16.406;2023-08-01T06:52:10;4.13;;;3.30;;
10333;SDS011;5212;47.892;16.406;2023-08-01T06:54:36;4.17;;;3.77;;
10333;SDS011;5212;47.892;16.406;2023-08-01T06:57:02;4.93;;;3.80;;
10333;SDS011;5212;47.892;16.406;2023-08-01T06:59:28;4.83;;;3.70;;
10333;SDS011;5212;47.892;16.406;2023-08-01T07:01:55;4.90;;;3.67;;
10333;SDS011;5212;47.892;16.406;2023-08-01T07:04:21;3.67;;;3.33;;
10333;SDS011;5212;47.892;16.406;2023-08-01T07:06:47;3.90;;;3.50;;
10333;SDS011;5212;47.892;16.406;2023-08-01T07:09:13;3.87;;;3.57;;
10333;SDS011;5212;47.892;16.406;2023-08-01T07:11:40;5.23;;;3.50;;
10333;SDS011;5212;47.892;16.406;2023-08-01T07:14:06;3.40;;;3.10;;
10333;SDS011;5212;47.892;16.406;2023-08-01T07:16:32;3.87;;;3.03;;
10333;SDS011;5212;47.892;16.406;2023-08-01T07:18:59;3.43;;;3.13;;
10333;SDS011;5212;47.892;16.406;2023-08-01T07:21:26;3.63;;;3.23;;
10333;SDS011;5212;47.892;16.406;2023-08-01T07:23:52;3.37;;;3.07;;
10333;SDS011;5212;47.892;16.406;2023-08-01T07:26:18;4.20;;;3.20;;
10333;SDS011;5212;47.892;16.406;2023-08-01T07:28:44;4.10;;;3.47;;
10333;SDS011;5212;47.892;16.406;2023-08-01T07:31:10;4.30;;;3.90;;
10333;SDS011;5212;47.892;16.406;2023-08-01T07:33:36;4.90;;;4.40;;
10333;SDS011;5212;47.892;16.406;2023-08-01T07:36:03;4.43;;;4.03;;
10333;SDS011;5212;47.892;16.406;2023-08-01T07:38:30;5.13;;;4.07;;
10333;SDS011;5212;47.892;16.406;2023-08-01T07:40:57;3.93;;;3.60;;
10333;SDS011;5212;47.892;16.406;2023-08-01T07:43:23;3.63;;;3.30;;
10333;SDS011;5212;47.892;16.406;2023-08-01T07:45:54;4.10;;;3.70;;
10333;SDS011;5212;47.892;16.406;2023-08-01T07:48:21;4.90;;;4.40;;
10333;SDS011;5212;47.892;16.406;2023-08-01T07:50:47;5.10;;;4.50;;
10333;SDS011;5212;47.892;16.406;2023-08-01T07:53:14;5.17;;;4.37;;
10333;SDS011;5212;47.892;16.406;2023-08-01T07:55:40;4.70;;;4.30;;
10333;SDS011;5212;47.892;16.406;2023-08-01T07:58:06;5.37;;;4.40;;
10333;SDS011;5212;47.892;16.406;2023-08-01T08:00:32;5.43;;;4.63;;
10333;SDS011;5212;47.892;16.406;2023-08-01T08:03:00;5.30;;;4.80;;
10333;SDS011;5212;47.892;16.406;2023-08-01T08:05:26;5.47;;;4.67;;
10333;SDS011;5212;47.892;16.406;2023-08-01T08:07:52;5.27;;;4.63;;
10333;SDS011;5212;47.892;16.406;2023-08-01T08:10:18;4.87;;;4.37;;
10333;SDS011;5212;47.892;16.406;2023-08-01T08:12:44;5.83;;;5.20;;
10333;SDS011;5212;47.892;16.406;2023-08-01T08:15:11;6.93;;;5.50;;
10333;SDS011;5212;47.892;16.406;2023-08-01T08:17:38;5.33;;;4.83;;
10333;SDS011;5212;47.892;16.406;2023-08-01T08:20:05;6.97;;;4.57;;
10333;SDS011;5212;47.892;16.406;2023-08-01T08:22:31;4.93;;;4.53;;
10333;SDS011;5212;47.892;16.406;2023-08-01T08:24:57;4.60;;;4.20;;
10333;SDS011;5212;47.892;16.406;2023-08-01T08:27:24;6.27;;;5.73;;
10333;SDS011;5212;47.892;16.406;2023-08-01T08:29:50;5.60;;;5.00;;
10333;SDS011;5212;47.892;16.406;2023-08-01T08:32:16;7.27;;;4.70;;
10333;SDS011;5212;47.892;16.406;2023-08-01T08:34:42;4.90;;;4.50;;
10333;SDS011;5212;47.892;16.406;2023-08-01T08:37:08;5.30;;;4.67;;
10333;SDS011;5212;47.892;16.406;2023-08-01T08:39:34;4.57;;;4.17;;
10333;SDS011;5212;47.892;16.406;2023-08-01T08:42:00;8.50;;;4.90;;
10333;SDS011;5212;47.892;16.406;2023-08-01T08:44:27;6.73;;;5.50;;
10333;SDS011;5212;47.892;16.406;2023-08-01T08:46:55;5.40;;;4.53;;
10333;SDS011;5212;47.892;16.406;2023-08-01T08:49:29;7.97;;;5.70;;
10333;SDS011;5212;47.892;16.406;2023-08-01T08:51:55;5.63;;;4.97;;
10333;SDS011;5212;47.892;16.406;2023-08-01T08:54:22;4.80;;;4.33;;
10333;SDS011;5212;47.892;16.406;2023-08-01T08:56:48;6.37;;;4.67;;
10333;SDS011;5212;47.892;16.406;2023-08-01T08:59:15;7.10;;;5.10;;
10333;SDS011;5212;47.892;16.406;2023-08-01T09:01:42;5.00;;;4.40;;
10333;SDS011;5212;47.892;16.406;2023-08-01T09:04:08;5.33;;;4.50;;
10333;SDS011;5212;47.892;16.406;2023-08-01T09:06:34;4.87;;;4.43;;
10333;SDS011;5212;47.892;16.406;2023-08-01T09:09:08;4.90;;;4.40;;
10333;SDS011;5212;47.892;16.406;2023-08-01T09:11:39;4.83;;;4.43;;
10333;SDS011;5212;47.892;16.406;2023-08-01T09:14:08;6.57;;;4.57;;
10333;SDS011;5212;47.892;16.406;2023-08-01T09:16:34;4.53;;;4.00;;
10333;SDS011;5212;47.892;16.406;2023-08-01T09:19:01;4.57;;;4.17;;
10333;SDS011;5212;47.892;16.406;2023-08-01T09:21:30;5.83;;;4.83;;
10333;SDS011;5212;47.892;16.406;2023-08-01T09:23:58;9.17;;;4.73;;
10333;SDS011;5212;47.892;16.406;2023-08-01T09:26:33;4.90;;;4.40;;
10333;SDS011;5212;47.892;16.406;2023-08-01T09:28:59;5.13;;;4.50;;
10333;SDS011;5212;47.892;16.406;2023-08-01T09:31:26;11.67;;;5.10;;
10333;SDS011;5212;47.892;16.406;2023-08-01T09:33:52;7.90;;;4.90;;
10333;SDS011;5212;47.892;16.406;2023-08-01T09:36:21;7.73;;;4.57;;
10333;SDS011;5212;47.892;16.406;2023-08-01T09:38:47;6.67;;;4.63;;
10333;SDS011;5212;47.892;16.406;2023-08-01T09:41:16;7.37;;;5.20;;
10333;SDS011;5212;47.892;16.406;2023-08-01T09:43:42;6.20;;;5.00;;
10333;SDS011;5212;47.892;16.406;2023-08-01T09:46:08;7.20;;;4.57;;
10333;SDS011;5212;47.892;16.406;2023-08-01T09:48:37;5.83;;;4.10;;
10333;SDS011;5212;47.892;16.406;2023-08-01T09:51:04;5.10;;;4.17;;
10333;SDS011;5212;47.892;16.406;2023-08-01T09:53:34;4.80;;;4.30;;
10333;SDS011;5212;47.892;16.406;2023-08-01T09:56:01;6.27;;;4.50;;
10333;SDS011;5212;47.892;16.406;2023-08-01T09:58:28;5.70;;;4.00;;
10333;SDS011;5212;47.892;16.406;2023-08-01T10:00:58;5.10;;;3.60;;
10333;SDS011;5212;47.892;16.406;2023-08-01T10:03:25;4.30;;;3.40;;
10333;SDS011;5212;47.892;16.406;2023-08-01T10:05:51;4.57;;;3.60;;
10333;SDS011;5212;47.892;16.406;2023-08-01T10:08:19;4.00;;;3.60;;
10333;SDS011;5212;47.892;16.406;2023-08-01T10:10:47;3.87;;;3.27;;
10333;SDS011;5212;47.892;16.406;2023-08-01T10:13:13;4.50;;;3.50;;
10333;SDS011;5212;47.892;16.406;2023-08-01T10:15:40;5.43;;;3.47;;
10333;SDS011;5212;47.892;16.406;2023-08-01T10:18:06;5.17;;;3.30;;
10333;SDS011;5212;47.892;16.406;2023-08-01T10:20:33;5.17;;;3.20;;
10333;SDS011;5212;47.892;16.406;2023-08-01T10:23:01;4.37;;;3.40;;
10333;SDS011;5212;47.892;16.406;2023-08-01T10:25:28;4.37;;;3.77;;
10333;SDS011;5212;47.892;16.406;2023-08-01T10:27:58;4.07;;;3.50;;
10333;SDS011;5212;47.892;16.406;2023-08-01T10:30:25;4.33;;;3.93;;
10333;SDS011;5212;47.892;16.406;2023-08-01T10:32:53;6.03;;;4.10;;
10333;SDS011;5212;47.892;16.406;2023-08-01T10:35:30;9.27;;;4.73;;
10333;SDS011;5212;47.892;16.406;2023-08-01T10:38:03;7.03;;;5.10;;
10333;SDS011;5212;47.892;16.406;2023-08-01T10:40:33;5.70;;;4.70;;
10333;SDS011;5212;47.892;16.406;2023-08-01T10:43:00;5.83;;;4.60;;
10333;SDS011;5212;47.892;16.406;2023-08-01T10:45:26;6.00;;;4.87;;
10333;SDS011;5212;47.892;16.406;2023-08-01T10:47:54;5.73;;;5.10;;
10333;SDS011;5212;47.892;16.406;2023-08-01T10:50:20;5.50;;;4.90;;
10333;SDS011;5212;47.892;16.406;2023-08-01T10:52:46;9.50;;;5.17;;
10333;SDS011;5212;47.892;16.406;2023-08-01T10:55:12;6.20;;;4.50;;
10333;SDS011;5212;47.892;16.406;2023-08-01T10:57:39;5.00;;;4.47;;
10333;SDS011;5212;47.892;16.406;2023-08-01T11:00:15;5.30;;;4.60;;
10333;SDS011;5212;47.892;16.406;2023-08-01T11:02:46;4.47;;;3.80;;
10333;SDS011;5212;47.892;16.406;2023-08-01T11:05:14;8.23;;;4.13;;
10333;SDS011;5212;47.892;16.406;2023-08-01T11:07:40;4.07;;;3.60;;
10333;SDS011;5212;47.892;16.406;2023-08-01T11:10:07;5.20;;;3.77;;
10333;SDS011;5212;47.892;16.406;2023-08-01T11:12:35;3.50;;;3.20;;
10333;SDS011;5212;47.892;16.406;2023-08-01T11:15:02;4.47;;;3.97;;
10333;SDS011;5212;47.892;16.406;2023-08-01T11:17:29;4.03;;;3.60;;
10333;SDS011;5212;47.892;16.406;2023-08-01T11:20:03;4.87;;;3.40;;
10333;SDS011;5212;47.892;16.406;2023-08-01T11:22:30;4.30;;;3.37;;
10333;SDS011;5212;47.892;16.406;2023-08-01T11:24:56;3.47;;;3.17;;
10333;SDS011;5212;47.892;16.406;2023-08-01T11:27:22;4.40;;;3.60;;
10333;SDS011;5212;47.892;16.406;2023-08-01T11:29:49;3.27;;;2.97;;
10333;SDS011;5212;47.892;16.406;2023-08-01T11:32:15;3.47;;;3.10;;
10333;SDS011;5212;47.892;16.406;2023-08-01T11:34:42;5.67;;;3.60;;
10333;SDS011;5212;47.892;16.406;2023-08-01T11:37:09;3.73;;;3.40;;
10333;SDS011;5212;47.892;16.406;2023-08-01T11:39:35;4.10;;;3.40;;
10333;SDS011;5212;47.892;16.406;2023-08-01T11:42:02;4.63;;;3.73;;
10333;SDS011;5212;47.892;16.406;2023-08-01T11:44:28;5.30;;;4.07;;
10333;SDS011;5212;47.892;16.406;2023-08-01T11:46:54;4.63;;;4.10;;
10333;SDS011;5212;47.892;16.406;2023-08-01T11:49:21;5.27;;;3.87;;
10333;SDS011;5212;47.892;16.406;2023-08-01T11:51:48;4.90;;;4.30;;
10333;SDS011;5212;47.892;16.406;2023-08-01T11:54:14;5.90;;;4.80;;
10333;SDS011;5212;47.892;16.406;2023-08-01T11:56:41;4.27;;;3.60;;
10333;SDS011;5212;47.892;16.406;2023-08-01T11:59:08;5.03;;;3.97;;
10333;SDS011;5212;47.892;16.406;2023-08-01T12:01:37;5.40;;;3.70;;
10333;SDS011;5212;47.892;16.406;2023-08-01T12:04:04;5.17;;;4.63;;
10333;SDS011;5212;47.892;16.406;2023-08-01T12:06:30;7.10;;;4.57;;
10333;SDS011;5212;47.892;16.406;2023-08-01T12:09:05;4.10;;;3.70;;
10333;SDS011;5212;47.892;16.406;2023-08-01T12:11:32;4.70;;;3.83;;
10333;SDS011;5212;47.892;16.406;2023-08-01T12:14:02;6.73;;;4.83;;
10333;SDS011;5212;47.892;16.406;2023-08-01T12:16:28;5.43;;;4.33;;
10333;SDS011;5212;47.892;16.406;2023-08-01T12:18:54;4.20;;;3.80;;
10333;SDS011;5212;47.892;16.406;2023-08-01T12:21:20;7.33;;;3.97;;
10333;SDS011;5212;47.892;16.406;2023-08-01T12:23:47;3.80;;;3.40;;
10333;SDS011;5212;47.892;16.406;2023-08-01T12:26:13;4.43;;;3.60;;
10333;SDS011;5212;47.892;16.406;2023-08-01T12:28:40;4.90;;;3.97;;
10333;SDS011;5212;47.892;16.406;2023-08-01T12:31:06;4.73;;;4.03;;
10333;SDS011;5212;47.892;16.406;2023-08-01T12:33:32;4.50;;;3.90;;
10333;SDS011;5212;47.892;16.406;2023-08-01T12:35:59;4.30;;;3.90;;
10333;SDS011;5212;47.892;16.406;2023-08-01T12:38:25;4.43;;;3.73;;
10333;SDS011;5212;47.892;16.406;2023-08-01T12:40:51;3.93;;;3.57;;
10333;SDS011;5212;47.892;16.406;2023-08-01T12:43:18;3.80;;;3.40;;
10333;SDS011;5212;47.892;16.406;2023-08-01T12:45:44;4.20;;;3.80;;
10333;SDS011;5212;47.892;16.406;2023-08-01T12:48:11;3.87;;;3.40;;
10333;SDS011;5212;47.892;16.406;2023-08-01T12:50:38;4.30;;;3.90;;
10333;SDS011;5212;47.892;16.406;2023-08-01T12:53:04;4.90;;;4.40;;
10333;SDS011;5212;47.892;16.406;2023-08-01T12:55:30;4.67;;;4.00;;
10333;SDS011;5212;47.892;16.406;2023-08-01T12:57:56;4.60;;;4.00;;
10333;SDS011;5212;47.892;16.406;2023-08-01T13:00:22;4.40;;;3.53;;
10333;SDS011;5212;47.892;16.406;2023-08-01T13:02:48;3.60;;;3.30;;
10333;SDS011;5212;47.892;16.406;2023-08-01T13:05:15;3.50;;;3.20;;
10333;SDS011;5212;47.892;16.406;2023-08-01T13:07:42;5.90;;;4.30;;
10333;SDS011;5212;47.892;16.406;2023-08-01T13:10:08;5.00;;;4.50;;
10333;SDS011;5212;47.892;16.406;2023-08-01T13:12:34;4.70;;;4.00;;
10333;SDS011;5212;47.892;16.406;2023-08-01T13:15:00;4.80;;;3.97;;
10333;SDS011;5212;47.892;16.406;2023-08-01T13:17:27;4.27;;;3.50;;
10333;SDS011;5212;47.892;16.406;2023-08-01T13:19:53;5.17;;;3.70;;
10333;SDS011;5212;47.892;16.406;2023-08-01T13:22:19;3.80;;;3.40;;
10333;SDS011;5212;47.892;16.406;2023-08-01T13:24:45;4.50;;;3.60;;
10333;SDS011;5212;47.892;16.406;2023-08-01T13:27:11;4.83;;;4.33;;
10333;SDS011;5212;47.892;16.406;2023-08-01T13:29:38;4.30;;;3.90;;
10333;SDS011;5212;47.892;16.406;2023-08-01T13:32:05;7.57;;;4.93;;
10333;SDS011;5212;47.892;16.406;2023-08-01T13:34:32;5.20;;;4.70;;
10333;SDS011;5212;47.892;16.406;2023-08-01T13:36:58;5.10;;;4.17;;
10333;SDS011;5212;47.892;16.406;2023-08-01T13:39:24;5.20;;;4.00;;
10333;SDS011;5212;47.892;16.406;2023-08-01T13:41:50;5.63;;;5.07;;
10333;SDS011;5212;47.892;16.406;2023-08-01T13:44:16;4.17;;;3.77;;
10333;SDS011;5212;47.892;16.406;2023-08-01T13:46:42;5.20;;;3.73;;
10333;SDS011;5212;47.892;16.406;2023-08-01T13:49:08;4.10;;;3.70;;
10333;SDS011;5212;47.892;16.406;2023-08-01T13:51:35;4.20;;;3.67;;
10333;SDS011;5212;47.892;16.406;2023-08-01T13:54:01;4.37;;;3.37;;
10333;SDS011;5212;47.892;16.406;2023-08-01T13:56:27;4.80;;;4.13;;
10333;SDS011;5212;47.892;16.406;2023-08-01T13:58:53;4.33;;;3.90;;
10333;SDS011;5212;47.892;16.406;2023-08-01T14:01:19;5.93;;;4.00;;
10333;SDS011;5212;47.892;16.406;2023-08-01T14:03:45;4.27;;;3.87;;
10333;SDS011;5212;47.892;16.406;2023-08-01T14:06:12;5.87;;;4.30;;
10333;SDS011;5212;47.892;16.406;2023-08-01T14:08:39;5.27;;;4.47;;
10333;SDS011;5212;47.892;16.406;2023-08-01T14:11:07;7.30;;;4.97;;
10333;SDS011;5212;47.892;16.406;2023-08-01T14:13:34;5.30;;;4.17;;
10333;SDS011;5212;47.892;16.406;2023-08-01T14:16:01;5.33;;;4.20;;
10333;SDS011;5212;47.892;16.406;2023-08-01T14:18:27;4.37;;;3.93;;
10333;SDS011;5212;47.892;16.406;2023-08-01T14:20:53;3.87;;;3.37;;
10333;SDS011;5212;47.892;16.406;2023-08-01T14:23:19;3.40;;;3.10;;
10333;SDS011;5212;47.892;16.406;2023-08-01T14:25:46;5.47;;;3.57;;
10333;SDS011;5212;47.892;16.406;2023-08-01T14:28:13;5.53;;;4.70;;
10333;SDS011;5212;47.892;16.406;2023-08-01T14:30:39;4.87;;;4.37;;
10333;SDS011;5212;47.892;16.406;2023-08-01T14:33:07;4.63;;;3.60;;
10333;SDS011;5212;47.892;16.406;2023-08-01T14:35:34;4.70;;;3.80;;
10333;SDS011;5212;47.892;16.406;2023-08-01T14:38:00;4.40;;;3.37;;
10333;SDS011;5212;47.892;16.406;2023-08-01T14:40:27;3.93;;;3.53;;
10333;SDS011;5212;47.892;16.406;2023-08-01T14:42:54;3.93;;;3.40;;
10333;SDS011;5212;47.892;16.406;2023-08-01T14:45:20;4.37;;;3.77;;